sensor_id;sensor_type;location;lat;lon;timestamp;pressure;altitude;pressure_sealevel;temperature
69007;BMP180;56061;51.748;19.620;2023-03-01T00:01:24;100248.60;;;-4.10
69007;BMP180;56061;51.748;19.620;2023-03-01T00:03:52;100249.60;;;-4.10
69007;BMP180;56061;51.748;19.620;2023-03-01T00:06:20;100248.40;;;-4.10
69007;BMP180;56061;51.748;19.620;2023-03-01T00:08:47;100251.20;;;-4.20
69007;BMP180;56061;51.748;19.620;2023-03-01T00:11:22;100249.80;;;-4.22
69007;BMP180;56061;51.748;19.620;2023-03-01T00:13:53;100251.40;;;-4.30
69007;BMP180;56061;51.748;19.620;2023-03-01T00:18:50;100255.80;;;-4.32
69007;BMP180;56061;51.748;19.620;2023-03-01T00:21:19;100265.00;;;-4.36
69007;BMP180;56061;51.748;19.620;2023-03-01T00:23:47;100266.00;;;-4.40
69007;BMP180;56061;51.748;19.620;2023-03-01T00:26:17;100267.00;;;-4.40
69007;BMP180;56061;51.748;19.620;2023-03-01T00:28:44;100263.00;;;-4.50
69007;BMP180;56061;51.748;19.620;2023-03-01T00:31:20;100261.00;;;-4.70
69007;BMP180;56061;51.748;19.620;2023-03-01T00:33:47;100255.60;;;-4.74
69007;BMP180;56061;51.748;19.620;2023-03-01T00:36:15;100247.60;;;-4.80
69007;BMP180;56061;51.748;19.620;2023-03-01T00:38:45;100236.20;;;-4.80
69007;BMP180;56061;51.748;19.620;2023-03-01T00:41:16;100230.60;;;-4.80
69007;BMP180;56061;51.748;19.620;2023-03-01T00:43:44;100230.40;;;-4.80
69007;BMP180;56061;51.748;19.620;2023-03-01T00:46:17;100233.60;;;-4.80
69007;BMP180;56061;51.748;19.620;2023-03-01T00:48:45;100222.80;;;-4.80
69007;BMP180;56061;51.748;19.620;2023-03-01T00:51:19;100220.80;;;-4.80
69007;BMP180;56061;51.748;19.620;2023-03-01T00:53:49;100223.00;;;-4.80
69007;BMP180;56061;51.748;19.620;2023-03-01T00:56:16;100223.60;;;-4.80
69007;BMP180;56061;51.748;19.620;2023-03-01T00:58:43;100234.20;;;-4.80
69007;BMP180;56061;51.748;19.620;2023-03-01T01:01:17;100237.00;;;-4.80
69007;BMP180;56061;51.748;19.620;2023-03-01T01:03:53;100239.80;;;-4.92
69007;BMP180;56061;51.748;19.620;2023-03-01T01:06:42;100236.00;;;-5.08
69007;BMP180;56061;51.748;19.620;2023-03-01T01:09:14;100243.00;;;-5.10
69007;BMP180;56061;51.748;19.620;2023-03-01T01:11:48;100241.00;;;-5.10
69007;BMP180;56061;51.748;19.620;2023-03-01T01:14:16;100243.00;;;-5.10
69007;BMP180;56061;51.748;19.620;2023-03-01T01:16:42;100243.00;;;-5.20
69007;BMP180;56061;51.748;19.620;2023-03-01T01:19:11;100245.00;;;-5.20
69007;BMP180;56061;51.748;19.620;2023-03-01T01:21:38;100239.00;;;-5.20
69007;BMP180;56061;51.748;19.620;2023-03-01T01:24:05;100233.00;;;-5.20
69007;BMP180;56061;51.748;19.620;2023-03-01T01:26:34;100227.40;;;-5.22
69007;BMP180;56061;51.748;19.620;2023-03-01T01:29:03;100226.20;;;-5.20
69007;BMP180;56061;51.748;19.620;2023-03-01T01:31:33;100224.00;;;-5.20
69007;BMP180;56061;51.748;19.620;2023-03-01T01:34:03;100222.00;;;-5.20
69007;BMP180;56061;51.748;19.620;2023-03-01T01:36:32;100221.40;;;-5.20
69007;BMP180;56061;51.748;19.620;2023-03-01T01:38:59;100217.40;;;-5.10
69007;BMP180;56061;51.748;19.620;2023-03-01T01:41:27;100221.00;;;-5.10
69007;BMP180;56061;51.748;19.620;2023-03-01T01:44:20;100217.00;;;-5.10
69007;BMP180;56061;51.748;19.620;2023-03-01T01:49:37;100204.20;;;-5.00
69007;BMP180;56061;51.748;19.620;2023-03-01T01:52:27;100206.60;;;-5.00
69007;BMP180;56061;51.748;19.620;2023-03-01T01:55:04;100202.20;;;-5.00
69007;BMP180;56061;51.748;19.620;2023-03-01T01:57:39;100193.40;;;-4.90
69007;BMP180;56061;51.748;19.620;2023-03-01T02:00:13;100195.20;;;-4.90
69007;BMP180;56061;51.748;19.620;2023-03-01T02:02:41;100190.60;;;-4.86
69007;BMP180;56061;51.748;19.620;2023-03-01T02:05:20;100186.60;;;-4.80
69007;BMP180;56061;51.748;19.620;2023-03-01T02:07:49;100185.80;;;-4.70
69007;BMP180;56061;51.748;19.620;2023-03-01T02:13:12;100173.60;;;-4.50
69007;BMP180;56061;51.748;19.620;2023-03-01T02:15:41;100176.40;;;-4.40
69007;BMP180;56061;51.748;19.620;2023-03-01T02:18:14;100154.80;;;-4.32
69007;BMP180;56061;51.748;19.620;2023-03-01T02:21:05;100148.00;;;-4.28
69007;BMP180;56061;51.748;19.620;2023-03-01T02:23:33;100147.40;;;-4.20
69007;BMP180;56061;51.748;19.620;2023-03-01T02:26:16;100142.60;;;-4.10
69007;BMP180;56061;51.748;19.620;2023-03-01T02:28:44;100149.40;;;-4.02
69007;BMP180;56061;51.748;19.620;2023-03-01T02:31:16;100149.00;;;-4.00
69007;BMP180;56061;51.748;19.620;2023-03-01T02:34:03;100142.80;;;-3.98
69007;BMP180;56061;51.748;19.620;2023-03-01T02:36:39;100143.20;;;-3.90
69007;BMP180;56061;51.748;19.620;2023-03-01T02:39:12;100142.00;;;-3.90
69007;BMP180;56061;51.748;19.620;2023-03-01T02:41:45;100135.20;;;-4.00
69007;BMP180;56061;51.748;19.620;2023-03-01T02:44:13;100139.60;;;-3.90
69007;BMP180;56061;51.748;19.620;2023-03-01T02:46:51;100144.00;;;-3.90
69007;BMP180;56061;51.748;19.620;2023-03-01T02:49:31;100148.80;;;-3.80
69007;BMP180;56061;51.748;19.620;2023-03-01T02:52:30;100151.80;;;-3.90
69007;BMP180;56061;51.748;19.620;2023-03-01T02:55:14;100151.00;;;-3.90
69007;BMP180;56061;51.748;19.620;2023-03-01T02:57:45;100146.20;;;-3.90
69007;BMP180;56061;51.748;19.620;2023-03-01T03:00:21;100148.60;;;-3.90
69007;BMP180;56061;51.748;19.620;2023-03-01T03:02:53;100142.40;;;-4.00
69007;BMP180;56061;51.748;19.620;2023-03-01T03:05:23;100132.20;;;-4.00
69007;BMP180;56061;51.748;19.620;2023-03-01T03:07:50;100131.00;;;-4.00
69007;BMP180;56061;51.748;19.620;2023-03-01T03:10:25;100131.80;;;-4.00
69007;BMP180;56061;51.748;19.620;2023-03-01T03:12:57;100135.40;;;-3.98
69007;BMP180;56061;51.748;19.620;2023-03-01T03:15:26;100139.80;;;-4.00
69007;BMP180;56061;51.748;19.620;2023-03-01T03:17:53;100134.60;;;-4.00
69007;BMP180;56061;51.748;19.620;2023-03-01T03:20:23;100126.40;;;-4.00
69007;BMP180;56061;51.748;19.620;2023-03-01T03:22:53;100128.40;;;-3.98
69007;BMP180;56061;51.748;19.620;2023-03-01T03:25:22;100129.60;;;-3.94
69007;BMP180;56061;51.748;19.620;2023-03-01T03:27:50;100131.00;;;-3.90
69007;BMP180;56061;51.748;19.620;2023-03-01T03:30:27;100129.20;;;-3.92
69007;BMP180;56061;51.748;19.620;2023-03-01T03:32:55;100133.80;;;-4.00
69007;BMP180;56061;51.748;19.620;2023-03-01T03:35:27;100144.20;;;-4.00
69007;BMP180;56061;51.748;19.620;2023-03-01T03:37:59;100144.20;;;-4.00
69007;BMP180;56061;51.748;19.620;2023-03-01T03:43:10;100138.40;;;-4.10
69007;BMP180;56061;51.748;19.620;2023-03-01T03:45:37;100142.20;;;-4.20
69007;BMP180;56061;51.748;19.620;2023-03-01T03:48:07;100142.40;;;-4.20
69007;BMP180;56061;51.748;19.620;2023-03-01T03:50:34;100144.00;;;-4.22
69007;BMP180;56061;51.748;19.620;2023-03-01T03:53:04;100143.00;;;-4.30
69007;BMP180;56061;51.748;19.620;2023-03-01T03:55:32;100129.20;;;-4.30
69007;BMP180;56061;51.748;19.620;2023-03-01T03:58:02;100129.00;;;-4.30
69007;BMP180;56061;51.748;19.620;2023-03-01T04:00:36;100129.80;;;-4.30
69007;BMP180;56061;51.748;19.620;2023-03-01T04:03:03;100131.20;;;-4.30
69007;BMP180;56061;51.748;19.620;2023-03-01T04:05:30;100134.00;;;-4.30
69007;BMP180;56061;51.748;19.620;2023-03-01T04:07:57;100127.80;;;-4.30
69007;BMP180;56061;51.748;19.620;2023-03-01T04:10:43;100132.40;;;-4.30
69007;BMP180;56061;51.748;19.620;2023-03-01T04:13:16;100135.00;;;-4.26
69007;BMP180;56061;51.748;19.620;2023-03-01T04:15:50;100136.00;;;-4.20
69007;BMP180;56061;51.748;19.620;2023-03-01T04:18:19;100144.00;;;-4.20
69007;BMP180;56061;51.748;19.620;2023-03-01T04:20:47;100141.80;;;-4.20
69007;BMP180;56061;51.748;19.620;2023-03-01T04:23:17;100142.00;;;-4.20
69007;BMP180;56061;51.748;19.620;2023-03-01T04:25:59;100143.20;;;-4.20
69007;BMP180;56061;51.748;19.620;2023-03-01T04:28:32;100141.80;;;-4.20
69007;BMP180;56061;51.748;19.620;2023-03-01T04:31:09;100137.60;;;-4.18
69007;BMP180;56061;51.748;19.620;2023-03-01T04:33:53;100136.80;;;-4.12
69007;BMP180;56061;51.748;19.620;2023-03-01T04:36:26;100139.60;;;-4.10
69007;BMP180;56061;51.748;19.620;2023-03-01T04:38:55;100129.00;;;-4.10
69007;BMP180;56061;51.748;19.620;2023-03-01T04:41:23;100126.20;;;-4.10
69007;BMP180;56061;51.748;19.620;2023-03-01T04:43:50;100122.40;;;-4.10
69007;BMP180;56061;51.748;19.620;2023-03-01T04:46:20;100112.60;;;-4.10
69007;BMP180;56061;51.748;19.620;2023-03-01T04:48:47;100112.20;;;-4.10
69007;BMP180;56061;51.748;19.620;2023-03-01T04:51:15;100114.20;;;-4.20
69007;BMP180;56061;51.748;19.620;2023-03-01T04:53:43;100114.80;;;-4.20
69007;BMP180;56061;51.748;19.620;2023-03-01T04:56:10;100116.40;;;-4.20
69007;BMP180;56061;51.748;19.620;2023-03-01T04:58:37;100110.20;;;-4.20
69007;BMP180;56061;51.748;19.620;2023-03-01T05:01:10;100113.40;;;-4.24
69007;BMP180;56061;51.748;19.620;2023-03-01T05:03:47;100112.60;;;-4.20
69007;BMP180;56061;51.748;19.620;2023-03-01T05:06:15;100118.00;;;-4.22
69007;BMP180;56061;51.748;19.620;2023-03-01T05:08:43;100122.60;;;-4.24
69007;BMP180;56061;51.748;19.620;2023-03-01T05:11:11;100123.40;;;-4.22
69007;BMP180;56061;51.748;19.620;2023-03-01T05:13:39;100119.60;;;-4.22
69007;BMP180;56061;51.748;19.620;2023-03-01T05:16:07;100116.20;;;-4.28
69007;BMP180;56061;51.748;19.620;2023-03-01T05:18:39;100112.80;;;-4.30
69007;BMP180;56061;51.748;19.620;2023-03-01T05:21:09;100107.00;;;-4.30
69007;BMP180;56061;51.748;19.620;2023-03-01T05:23:37;100102.80;;;-4.30
69007;BMP180;56061;51.748;19.620;2023-03-01T05:26:05;100110.80;;;-4.30
69007;BMP180;56061;51.748;19.620;2023-03-01T05:28:36;100116.80;;;-4.30
69007;BMP180;56061;51.748;19.620;2023-03-01T05:31:04;100115.20;;;-4.30
69007;BMP180;56061;51.748;19.620;2023-03-01T05:33:38;100115.00;;;-4.24
69007;BMP180;56061;51.748;19.620;2023-03-01T05:36:07;100108.20;;;-4.20
69007;BMP180;56061;51.748;19.620;2023-03-01T05:38:36;100109.00;;;-4.20
69007;BMP180;56061;51.748;19.620;2023-03-01T05:41:02;100104.00;;;-4.20
69007;BMP180;56061;51.748;19.620;2023-03-01T05:43:32;100095.60;;;-4.10
69007;BMP180;56061;51.748;19.620;2023-03-01T05:46:01;100098.60;;;-4.10
69007;BMP180;56061;51.748;19.620;2023-03-01T05:48:28;100103.60;;;-4.10
69007;BMP180;56061;51.748;19.620;2023-03-01T05:50:55;100102.40;;;-4.00
69007;BMP180;56061;51.748;19.620;2023-03-01T05:53:26;100087.60;;;-4.00
69007;BMP180;56061;51.748;19.620;2023-03-01T05:55:52;100089.80;;;-3.90
69007;BMP180;56061;51.748;19.620;2023-03-01T05:58:20;100076.80;;;-3.88
69007;BMP180;56061;51.748;19.620;2023-03-01T06:00:48;100072.40;;;-3.80
69007;BMP180;56061;51.748;19.620;2023-03-01T06:03:17;100069.60;;;-3.72
69007;BMP180;56061;51.748;19.620;2023-03-01T06:05:44;100069.80;;;-3.70
69007;BMP180;56061;51.748;19.620;2023-03-01T06:08:12;100070.00;;;-3.60
69007;BMP180;56061;51.748;19.620;2023-03-01T06:10:39;100064.80;;;-3.60
69007;BMP180;56061;51.748;19.620;2023-03-01T06:13:05;100071.00;;;-3.50
69007;BMP180;56061;51.748;19.620;2023-03-01T06:15:32;100074.00;;;-3.42
69007;BMP180;56061;51.748;19.620;2023-03-01T06:17:59;100084.80;;;-3.36
69007;BMP180;56061;51.748;19.620;2023-03-01T06:20:28;100083.80;;;-3.30
69007;BMP180;56061;51.748;19.620;2023-03-01T06:22:56;100076.80;;;-3.20
69007;BMP180;56061;51.748;19.620;2023-03-01T06:25:25;100080.00;;;-3.10
69007;BMP180;56061;51.748;19.620;2023-03-01T06:27:51;100079.80;;;-3.06
69007;BMP180;56061;51.748;19.620;2023-03-01T06:30:24;100074.60;;;-3.00
69007;BMP180;56061;51.748;19.620;2023-03-01T06:32:51;100084.40;;;-2.90
69007;BMP180;56061;51.748;19.620;2023-03-01T06:35:19;100092.20;;;-2.84
69007;BMP180;56061;51.748;19.620;2023-03-01T06:37:47;100101.20;;;-2.80
69007;BMP180;56061;51.748;19.620;2023-03-01T06:40:15;100107.40;;;-2.70
69007;BMP180;56061;51.748;19.620;2023-03-01T06:42:47;100111.20;;;-2.62
69007;BMP180;56061;51.748;19.620;2023-03-01T06:45:15;100117.00;;;-2.60
69007;BMP180;56061;51.748;19.620;2023-03-01T06:47:41;100115.80;;;-2.52
69007;BMP180;56061;51.748;19.620;2023-03-01T06:50:09;100113.60;;;-2.40
69007;BMP180;56061;51.748;19.620;2023-03-01T06:52:37;100103.80;;;-2.40
69007;BMP180;56061;51.748;19.620;2023-03-01T06:55:04;100108.60;;;-2.30
69007;BMP180;56061;51.748;19.620;2023-03-01T06:57:31;100112.80;;;-2.20
69007;BMP180;56061;51.748;19.620;2023-03-01T06:59:57;100114.20;;;-2.10
69007;BMP180;56061;51.748;19.620;2023-03-01T07:02:24;100105.60;;;-2.00
69007;BMP180;56061;51.748;19.620;2023-03-01T07:04:52;100107.40;;;-1.90
69007;BMP180;56061;51.748;19.620;2023-03-01T07:07:18;100099.60;;;-1.80
69007;BMP180;56061;51.748;19.620;2023-03-01T07:09:46;100096.60;;;-1.72
69007;BMP180;56061;51.748;19.620;2023-03-01T07:12:13;100101.40;;;-1.66
69007;BMP180;56061;51.748;19.620;2023-03-01T07:14:39;100091.20;;;-1.60
69007;BMP180;56061;51.748;19.620;2023-03-01T07:17:06;100092.20;;;-1.50
69007;BMP180;56061;51.748;19.620;2023-03-01T07:19:33;100090.60;;;-1.38
69007;BMP180;56061;51.748;19.620;2023-03-01T07:21:59;100089.00;;;-1.30
69007;BMP180;56061;51.748;19.620;2023-03-01T07:24:26;100092.60;;;-1.20
69007;BMP180;56061;51.748;19.620;2023-03-01T07:26:52;100091.60;;;-1.08
69007;BMP180;56061;51.748;19.620;2023-03-01T07:29:20;100084.40;;;-1.00
69007;BMP180;56061;51.748;19.620;2023-03-01T07:31:46;100090.40;;;-0.90
69007;BMP180;56061;51.748;19.620;2023-03-01T07:34:13;100092.20;;;-0.80
69007;BMP180;56061;51.748;19.620;2023-03-01T07:36:39;100096.00;;;-0.70
69007;BMP180;56061;51.748;19.620;2023-03-01T07:39:10;100092.40;;;-0.60
69007;BMP180;56061;51.748;19.620;2023-03-01T07:41:37;100097.20;;;-0.50
69007;BMP180;56061;51.748;19.620;2023-03-01T07:44:04;100096.00;;;-0.40
69007;BMP180;56061;51.748;19.620;2023-03-01T07:46:30;100097.80;;;-0.30
69007;BMP180;56061;51.748;19.620;2023-03-01T07:48:57;100098.80;;;-0.20
69007;BMP180;56061;51.748;19.620;2023-03-01T07:51:24;100094.00;;;-0.10
69007;BMP180;56061;51.748;19.620;2023-03-01T07:53:50;100098.00;;;0.00
69007;BMP180;56061;51.748;19.620;2023-03-01T07:56:17;100087.00;;;0.00
69007;BMP180;56061;51.748;19.620;2023-03-01T07:58:45;100083.20;;;0.04
69007;BMP180;56061;51.748;19.620;2023-03-01T08:01:16;100082.40;;;0.18
69007;BMP180;56061;51.748;19.620;2023-03-01T08:03:43;100084.20;;;0.30
69007;BMP180;56061;51.748;19.620;2023-03-01T08:06:13;100086.60;;;0.44
69007;BMP180;56061;51.748;19.620;2023-03-01T08:08:40;100088.00;;;0.58
69007;BMP180;56061;51.748;19.620;2023-03-01T08:11:13;100090.60;;;0.70
69007;BMP180;56061;51.748;19.620;2023-03-01T08:13:42;100091.80;;;0.80
69007;BMP180;56061;51.748;19.620;2023-03-01T08:16:12;100085.80;;;0.90
69007;BMP180;56061;51.748;19.620;2023-03-01T08:18:39;100087.00;;;1.00
69007;BMP180;56061;51.748;19.620;2023-03-01T08:21:15;100083.80;;;1.00
69007;BMP180;56061;51.748;19.620;2023-03-01T08:23:43;100089.00;;;1.10
69007;BMP180;56061;51.748;19.620;2023-03-01T08:26:19;100084.80;;;1.20
69007;BMP180;56061;51.748;19.620;2023-03-01T08:28:48;100085.60;;;1.30
69007;BMP180;56061;51.748;19.620;2023-03-01T08:33:48;100084.40;;;1.40
69007;BMP180;56061;51.748;19.620;2023-03-01T08:36:18;100080.00;;;1.50
69007;BMP180;56061;51.748;19.620;2023-03-01T08:38:44;100083.80;;;1.42
69007;BMP180;56061;51.748;19.620;2023-03-01T08:41:12;100079.40;;;1.40
69007;BMP180;56061;51.748;19.620;2023-03-01T08:43:38;100081.00;;;1.56
69007;BMP180;56061;51.748;19.620;2023-03-01T08:46:05;100078.00;;;1.70
69007;BMP180;56061;51.748;19.620;2023-03-01T08:48:31;100075.40;;;1.80
69007;BMP180;56061;51.748;19.620;2023-03-01T08:51:13;100071.00;;;1.90
69007;BMP180;56061;51.748;19.620;2023-03-01T08:53:41;100068.60;;;2.00
69007;BMP180;56061;51.748;19.620;2023-03-01T08:56:09;100060.80;;;2.10
69007;BMP180;56061;51.748;19.620;2023-03-01T08:58:36;100063.80;;;2.20
69007;BMP180;56061;51.748;19.620;2023-03-01T09:01:11;100058.60;;;2.20
69007;BMP180;56061;51.748;19.620;2023-03-01T09:03:39;100051.80;;;2.30
69007;BMP180;56061;51.748;19.620;2023-03-01T09:06:07;100045.80;;;2.40
69007;BMP180;56061;51.748;19.620;2023-03-01T09:08:36;100037.80;;;2.50
69007;BMP180;56061;51.748;19.620;2023-03-01T09:11:06;100034.00;;;2.52
69007;BMP180;56061;51.748;19.620;2023-03-01T09:13:33;100033.20;;;2.60
69007;BMP180;56061;51.748;19.620;2023-03-01T09:16:03;100042.00;;;2.70
69007;BMP180;56061;51.748;19.620;2023-03-01T09:18:31;100044.00;;;2.80
69007;BMP180;56061;51.748;19.620;2023-03-01T09:21:07;100046.00;;;2.80
69007;BMP180;56061;51.748;19.620;2023-03-01T09:23:40;100046.00;;;2.80
69007;BMP180;56061;51.748;19.620;2023-03-01T09:26:27;100043.80;;;2.90
69007;BMP180;56061;51.748;19.620;2023-03-01T09:28:56;100045.00;;;3.00
69007;BMP180;56061;51.748;19.620;2023-03-01T09:31:24;100039.60;;;3.10
69007;BMP180;56061;51.748;19.620;2023-03-01T09:33:53;100051.00;;;3.20
69007;BMP180;56061;51.748;19.620;2023-03-01T09:36:24;100047.00;;;3.30
69007;BMP180;56061;51.748;19.620;2023-03-01T09:38:52;100051.40;;;3.40
69007;BMP180;56061;51.748;19.620;2023-03-01T09:42:01;100055.20;;;3.54
69007;BMP180;56061;51.748;19.620;2023-03-01T09:44:45;100053.20;;;3.62
69007;BMP180;56061;51.748;19.620;2023-03-01T09:47:26;100050.40;;;3.70
69007;BMP180;56061;51.748;19.620;2023-03-01T09:50:06;100058.60;;;3.80
69007;BMP180;56061;51.748;19.620;2023-03-01T09:55:38;100047.00;;;3.92
69007;BMP180;56061;51.748;19.620;2023-03-01T09:58:29;100045.20;;;4.00
69007;BMP180;56061;51.748;19.620;2023-03-01T10:01:18;100043.80;;;4.10
69007;BMP180;56061;51.748;19.620;2023-03-01T10:04:32;100036.80;;;4.10
69007;BMP180;56061;51.748;19.620;2023-03-01T10:09:51;100036.00;;;4.30
69007;BMP180;56061;51.748;19.620;2023-03-01T10:12:24;100036.20;;;4.30
69007;BMP180;56061;51.748;19.620;2023-03-01T10:15:05;100037.40;;;4.32
69007;BMP180;56061;51.748;19.620;2023-03-01T10:17:38;100031.40;;;4.40
69007;BMP180;56061;51.748;19.620;2023-03-01T10:20:20;100027.00;;;4.40
69007;BMP180;56061;51.748;19.620;2023-03-01T10:22:48;100033.40;;;4.50
69007;BMP180;56061;51.748;19.620;2023-03-01T10:26:07;100024.60;;;4.50
69007;BMP180;56061;51.748;19.620;2023-03-01T10:31:39;100021.60;;;4.60
69007;BMP180;56061;51.748;19.620;2023-03-01T10:34:33;100022.40;;;4.70
69007;BMP180;56061;51.748;19.620;2023-03-01T10:37:17;100017.80;;;4.80
69007;BMP180;56061;51.748;19.620;2023-03-01T10:40:00;100016.40;;;4.84
69007;BMP180;56061;51.748;19.620;2023-03-01T10:42:38;100019.00;;;4.90
69007;BMP180;56061;51.748;19.620;2023-03-01T10:45:36;100014.60;;;4.98
69007;BMP180;56061;51.748;19.620;2023-03-01T10:48:16;100008.80;;;5.00
69007;BMP180;56061;51.748;19.620;2023-03-01T10:50:48;100007.60;;;5.10
69007;BMP180;56061;51.748;19.620;2023-03-01T10:53:27;100012.60;;;5.10
69007;BMP180;56061;51.748;19.620;2023-03-01T10:58:32;100003.20;;;5.20
69007;BMP180;56061;51.748;19.620;2023-03-01T11:01:05;99990.00;;;5.30
69007;BMP180;56061;51.748;19.620;2023-03-01T11:03:38;99986.20;;;5.40
69007;BMP180;56061;51.748;19.620;2023-03-01T11:08:46;99985.20;;;5.50
69007;BMP180;56061;51.748;19.620;2023-03-01T11:11:33;99990.20;;;5.60
69007;BMP180;56061;51.748;19.620;2023-03-01T11:14:16;99981.40;;;5.66
69007;BMP180;56061;51.748;19.620;2023-03-01T11:17:12;99970.80;;;5.72
69007;BMP180;56061;51.748;19.620;2023-03-01T11:19:41;99973.20;;;5.80
69007;BMP180;56061;51.748;19.620;2023-03-01T11:22:21;99966.00;;;5.80
69007;BMP180;56061;51.748;19.620;2023-03-01T11:24:54;99968.40;;;5.80
69007;BMP180;56061;51.748;19.620;2023-03-01T11:27:41;99956.80;;;5.80
69007;BMP180;56061;51.748;19.620;2023-03-01T11:33:05;99964.00;;;5.80
69007;BMP180;56061;51.748;19.620;2023-03-01T11:35:57;99962.60;;;5.80
69007;BMP180;56061;51.748;19.620;2023-03-01T11:38:29;99962.20;;;5.80
69007;BMP180;56061;51.748;19.620;2023-03-01T11:41:06;99952.60;;;5.80
69007;BMP180;56061;51.748;19.620;2023-03-01T11:46:45;99952.00;;;5.90
69007;BMP180;56061;51.748;19.620;2023-03-01T11:49:54;99952.40;;;5.96
69007;BMP180;56061;51.748;19.620;2023-03-01T12:02:45;99949.40;;;6.10
69007;BMP180;56061;51.748;19.620;2023-03-01T12:08:31;99946.40;;;6.20
69007;BMP180;56061;51.748;19.620;2023-03-01T12:11:15;99939.80;;;6.20
69007;BMP180;56061;51.748;19.620;2023-03-01T12:22:39;99924.60;;;6.40
69007;BMP180;56061;51.748;19.620;2023-03-01T12:37:10;99912.00;;;6.60
69007;BMP180;56061;51.748;19.620;2023-03-01T12:40:29;99904.60;;;6.60
69007;BMP180;56061;51.748;19.620;2023-03-01T12:43:58;99903.20;;;6.70
69007;BMP180;56061;51.748;19.620;2023-03-01T12:46:46;99889.40;;;6.70
69007;BMP180;56061;51.748;19.620;2023-03-01T12:49:26;99885.80;;;6.70
69007;BMP180;56061;51.748;19.620;2023-03-01T12:52:06;99890.40;;;6.64
69007;BMP180;56061;51.748;19.620;2023-03-01T12:54:37;99879.60;;;6.70
69007;BMP180;56061;51.748;19.620;2023-03-01T12:59:49;99882.80;;;6.80
69007;BMP180;56061;51.748;19.620;2023-03-01T13:02:30;99880.80;;;6.86
69007;BMP180;56061;51.748;19.620;2023-03-01T13:08:16;99884.20;;;6.78
69007;BMP180;56061;51.748;19.620;2023-03-01T13:10:51;99876.80;;;6.70
69007;BMP180;56061;51.748;19.620;2023-03-01T13:13:27;99882.00;;;6.70
69007;BMP180;56061;51.748;19.620;2023-03-01T13:15:55;99886.80;;;6.80
69007;BMP180;56061;51.748;19.620;2023-03-01T13:20:52;99892.20;;;6.88
69007;BMP180;56061;51.748;19.620;2023-03-01T13:26:17;99885.00;;;7.00
69007;BMP180;56061;51.748;19.620;2023-03-01T13:33:57;99886.20;;;7.10
69007;BMP180;56061;51.748;19.620;2023-03-01T13:44:26;99883.20;;;7.10
69007;BMP180;56061;51.748;19.620;2023-03-01T13:49:29;99881.40;;;7.20
69007;BMP180;56061;51.748;19.620;2023-03-01T13:52:44;99882.40;;;7.30
69007;BMP180;56061;51.748;19.620;2023-03-01T13:55:21;99886.40;;;7.30
69007;BMP180;56061;51.748;19.620;2023-03-01T13:57:57;99877.20;;;7.20
69007;BMP180;56061;51.748;19.620;2023-03-01T14:03:12;99883.40;;;7.20
69007;BMP180;56061;51.748;19.620;2023-03-01T14:05:43;99890.20;;;7.30
69007;BMP180;56061;51.748;19.620;2023-03-01T14:08:24;99889.20;;;7.30
69007;BMP180;56061;51.748;19.620;2023-03-01T14:17:41;99879.00;;;7.50
69007;BMP180;56061;51.748;19.620;2023-03-01T14:20:24;99863.20;;;7.52
69007;BMP180;56061;51.748;19.620;2023-03-01T14:22:55;99857.60;;;7.56
69007;BMP180;56061;51.748;19.620;2023-03-01T14:25:33;99856.20;;;7.56
69007;BMP180;56061;51.748;19.620;2023-03-01T14:28:24;99847.40;;;7.40
69007;BMP180;56061;51.748;19.620;2023-03-01T14:30:58;99840.40;;;7.40
69007;BMP180;56061;51.748;19.620;2023-03-01T14:36:09;99841.40;;;7.50
69007;BMP180;56061;51.748;19.620;2023-03-01T14:38:45;99839.60;;;7.40
69007;BMP180;56061;51.748;19.620;2023-03-01T14:41:19;99838.00;;;7.30
69007;BMP180;56061;51.748;19.620;2023-03-01T14:43:57;99832.60;;;7.30
69007;BMP180;56061;51.748;19.620;2023-03-01T14:46:37;99832.80;;;7.30
69007;BMP180;56061;51.748;19.620;2023-03-01T14:49:11;99834.20;;;7.40
69007;BMP180;56061;51.748;19.620;2023-03-01T14:51:43;99846.00;;;7.50
69007;BMP180;56061;51.748;19.620;2023-03-01T14:55:04;99840.60;;;7.50
69007;BMP180;56061;51.748;19.620;2023-03-01T14:57:31;99837.40;;;7.50
69007;BMP180;56061;51.748;19.620;2023-03-01T15:00:01;99836.60;;;7.40
69007;BMP180;56061;51.748;19.620;2023-03-01T15:02:32;99833.20;;;7.40
69007;BMP180;56061;51.748;19.620;2023-03-01T15:05:02;99831.80;;;7.48
69007;BMP180;56061;51.748;19.620;2023-03-01T15:07:38;99827.60;;;7.50
69007;BMP180;56061;51.748;19.620;2023-03-01T15:10:13;99824.80;;;7.50
69007;BMP180;56061;51.748;19.620;2023-03-01T15:12:41;99824.00;;;7.50
69007;BMP180;56061;51.748;19.620;2023-03-01T15:17:56;99823.40;;;7.50
69007;BMP180;56061;51.748;19.620;2023-03-01T15:20:27;99827.20;;;7.50
69007;BMP180;56061;51.748;19.620;2023-03-01T15:22:56;99826.80;;;7.46
69007;BMP180;56061;51.748;19.620;2023-03-01T15:25:27;99825.40;;;7.40
69007;BMP180;56061;51.748;19.620;2023-03-01T15:27:56;99824.60;;;7.30
69007;BMP180;56061;51.748;19.620;2023-03-01T15:30:33;99822.60;;;7.20
69007;BMP180;56061;51.748;19.620;2023-03-01T15:33:29;99820.40;;;7.10
69007;BMP180;56061;51.748;19.620;2023-03-01T15:35:58;99817.20;;;6.86
69007;BMP180;56061;51.748;19.620;2023-03-01T15:38:55;99818.00;;;6.70
69007;BMP180;56061;51.748;19.620;2023-03-01T15:41:30;99820.20;;;6.60
69007;BMP180;56061;51.748;19.620;2023-03-01T15:44:00;99819.20;;;6.50
69007;BMP180;56061;51.748;19.620;2023-03-01T15:46:34;99824.00;;;6.30
69007;BMP180;56061;51.748;19.620;2023-03-01T15:49:36;99823.60;;;6.22
69007;BMP180;56061;51.748;19.620;2023-03-01T15:52:27;99829.40;;;6.20
69007;BMP180;56061;51.748;19.620;2023-03-01T15:55:03;99819.80;;;6.00
69007;BMP180;56061;51.748;19.620;2023-03-01T15:57:31;99820.80;;;5.92
69007;BMP180;56061;51.748;19.620;2023-03-01T15:59:57;99822.00;;;5.90
69007;BMP180;56061;51.748;19.620;2023-03-01T16:02:24;99817.80;;;5.70
69007;BMP180;56061;51.748;19.620;2023-03-01T16:04:51;99816.00;;;5.60
69007;BMP180;56061;51.748;19.620;2023-03-01T16:07:17;99817.00;;;5.50
69007;BMP180;56061;51.748;19.620;2023-03-01T16:09:44;99827.80;;;5.40
69007;BMP180;56061;51.748;19.620;2023-03-01T16:12:14;99824.00;;;5.30
69007;BMP180;56061;51.748;19.620;2023-03-01T16:14:42;99825.00;;;5.20
69007;BMP180;56061;51.748;19.620;2023-03-01T16:17:09;99821.00;;;5.10